Time,TemperatureF,DewpointF,PressureIn,WindDirection,WindDirectionDegrees,WindSpeedMPH,WindSpeedGustMPH,Humidity,HourlyPrecipIn,Conditions,Clouds,dailyrainin,SoftwareType,DateUTC
2013-04-09 00:02:00,57.6,37.0,30.01,SSW,212,0.0,4.0,46,0.00,,,0.00,meteohub,2013-04-09 04:02:00,
2013-04-09 00:07:00,57.4,36.9,30.01,WNW,302,0.0,4.0,46,0.00,,,0.00,meteohub,2013-04-09 04:07:00,
2013-04-09 00:12:00,57.2,36.7,30.01,NNW,348,4.0,4.0,46,0.00,,,0.00,meteohub,2013-04-09 04:12:00,
2013-04-09 00:17:00,57.2,36.7,30.01,NNW,348,0.0,4.0,46,0.00,,,0.00,meteohub,2013-04-09 04:17:00,
2013-04-09 00:27:00,57.0,37.0,30.01,NE,55,0.0,4.0,47,0.00,,,0.00,meteohub,2013-04-09 04:27:00,
2013-04-09 00:32:00,57.2,37.2,30.01,South,190,4.0,4.0,47,0.00,,,0.00,meteohub,2013-04-09 04:32:00,
2013-04-09 00:37:00,57.2,37.2,30.01,South,190,2.0,4.0,47,0.00,,,0.00,meteohub,2013-04-09 04:37:00,
2013-04-09 00:42:00,57.2,37.2,30.01,South,190,0.0,4.0,47,0.00,,,0.00,meteohub,2013-04-09 04:42:00,
2013-04-09 00:47:00,57.2,37.2,30.01,WSW,258,0.0,4.0,47,0.00,,,0.00,meteohub,2013-04-09 04:47:00,
2013-04-09 00:52:00,57.0,37.6,30.01,WSW,258,0.0,3.0,48,0.00,,,0.00,meteohub,2013-04-09 04:52:00,
2013-04-09 01:02:00,56.7,37.2,30.01,NNE,32,0.0,0.0,48,0.00,,,0.00,meteohub,2013-04-09 05:02:00,
2013-04-09 01:07:00,56.5,37.6,30.01,East,100,2.0,0.0,49,0.00,,,0.00,meteohub,2013-04-09 05:07:00,
2013-04-09 01:12:00,56.3,37.4,30.04,ENE,78,0.0,4.0,49,0.00,,,0.00,meteohub,2013-04-09 05:12:00,
2013-04-09 01:22:00,56.1,37.2,30.04,SSE,168,0.0,4.0,49,0.00,,,0.00,meteohub,2013-04-09 05:22:00,
2013-04-09 01:47:00,55.4,37.0,30.04,South,190,4.0,4.0,50,0.00,,,0.00,meteohub,2013-04-09 05:47:00,
2013-04-09 01:52:00,55.2,37.4,30.04,ESE,122,3.0,4.0,51,0.00,,,0.00,meteohub,2013-04-09 05:52:00,
2013-04-09 01:57:00,55.0,37.2,30.01,NE,55,0.0,4.0,51,0.00,,,0.00,meteohub,2013-04-09 05:57:00,
2013-04-09 02:07:00,54.9,37.6,30.01,NNE,32,0.0,3.0,52,0.00,,,0.00,meteohub,2013-04-09 06:07:00,
2013-04-09 02:12:00,54.7,37.4,30.04,NNE,32,0.0,0.0,52,0.00,,,0.00,meteohub,2013-04-09 06:12:00,
2013-04-09 02:17:00,54.5,37.2,30.04,NE,55,0.0,0.0,52,0.00,,,0.00,meteohub,2013-04-09 06:17:00,
2013-04-09 02:22:00,54.3,37.0,30.04,North,10,0.0,0.0,52,0.00,,,0.00,meteohub,2013-04-09 06:22:00,
2013-04-09 02:27:00,54.0,37.2,30.04,NE,55,0.0,0.0,53,0.00,,,0.00,meteohub,2013-04-09 06:27:00,
2013-04-09 02:32:00,53.8,37.0,30.04,SE,145,0.0,0.0,53,0.00,,,0.00,meteohub,2013-04-09 06:32:00,
2013-04-09 02:37:00,53.6,36.9,30.04,East,100,0.0,0.0,53,0.00,,,0.00,meteohub,2013-04-09 06:37:00,
2013-04-09 02:47:00,53.6,37.4,30.01,SSE,168,0.0,0.0,54,0.00,,,0.00,meteohub,2013-04-09 06:47:00,
2013-04-09 02:52:00,53.4,37.8,30.01,WSW,258,0.0,0.0,55,0.00,,,0.00,meteohub,2013-04-09 06:52:00,
2013-04-09 02:57:00,53.2,37.6,30.01,WSW,258,0.0,0.0,55,0.00,,,0.00,meteohub,2013-04-09 06:57:00,
2013-04-09 03:07:00,52.5,36.9,30.01,NNE,32,0.0,3.0,55,0.00,,,0.00,meteohub,2013-04-09 07:07:00,
2013-04-09 03:12:00,52.5,37.2,30.01,ENE,78,0.0,3.0,56,0.00,,,0.00,meteohub,2013-04-09 07:12:00,
2013-04-09 03:17:00,52.3,37.2,30.01,East,100,3.0,0.0,56,0.00,,,0.00,meteohub,2013-04-09 07:17:00,
2013-04-09 03:22:00,52.2,37.4,30.01,ENE,78,0.0,4.0,57,0.00,,,0.00,meteohub,2013-04-09 07:22:00,
2013-04-09 03:32:00,51.8,37.0,30.01,NE,55,0.0,3.0,57,0.00,,,0.00,meteohub,2013-04-09 07:32:00,
2013-04-09 03:37:00,51.6,37.4,30.01,NNE,32,0.0,2.0,58,0.00,,,0.00,meteohub,2013-04-09 07:37:00,
2013-04-09 03:47:00,50.9,36.7,30.04,SSE,168,3.0,3.0,58,0.00,,,0.00,meteohub,2013-04-09 07:47:00,
2013-04-09 03:52:00,50.9,37.0,30.04,SSE,168,3.0,4.0,59,0.00,,,0.00,meteohub,2013-04-09 07:52:00,
2013-04-09 03:57:00,50.9,37.0,30.04,SSE,168,0.0,4.0,59,0.00,,,0.00,meteohub,2013-04-09 07:57:00,
2013-04-09 04:07:00,50.7,37.4,30.04,SSE,168,0.0,4.0,60,0.00,,,0.00,meteohub,2013-04-09 08:07:00,
2013-04-09 04:17:00,50.4,37.0,30.04,WNW,302,0.0,0.0,60,0.00,,,0.00,meteohub,2013-04-09 08:17:00,
2013-04-09 04:27:00,50.0,36.7,30.04,ENE,78,0.0,0.0,60,0.00,,,0.00,meteohub,2013-04-09 08:27:00,
2013-04-09 04:32:00,49.8,36.9,30.04,ENE,78,0.0,0.0,61,0.00,,,0.00,meteohub,2013-04-09 08:32:00,
2013-04-09 04:37:00,49.8,36.9,30.04,ENE,78,0.0,0.0,61,0.00,,,0.00,meteohub,2013-04-09 08:37:00,
2013-04-09 04:42:00,49.6,37.2,30.04,ENE,78,0.0,0.0,62,0.00,,,0.00,meteohub,2013-04-09 08:42:00,
2013-04-09 04:47:00,49.3,36.9,30.04,East,100,0.0,0.0,62,0.00,,,0.00,meteohub,2013-04-09 08:47:00,
2013-04-09 04:52:00,49.3,37.2,30.04,East,100,0.0,0.0,63,0.00,,,0.00,meteohub,2013-04-09 08:52:00,
2013-04-09 04:57:00,49.3,37.2,30.04,East,100,0.0,0.0,63,0.00,,,0.00,meteohub,2013-04-09 08:57:00,
2013-04-09 05:02:00,49.3,37.2,30.04,East,100,0.0,0.0,63,0.00,,,0.00,meteohub,2013-04-09 09:02:00,
2013-04-09 05:07:00,49.1,37.0,30.04,East,100,0.0,0.0,63,0.00,,,0.00,meteohub,2013-04-09 09:07:00,
2013-04-09 05:12:00,48.9,36.9,30.04,East,100,0.0,0.0,63,0.00,,,0.00,meteohub,2013-04-09 09:12:00,
2013-04-09 05:17:00,48.7,37.2,30.04,NNE,32,2.0,0.0,64,0.00,,,0.00,meteohub,2013-04-09 09:17:00,
2013-04-09 05:27:00,48.4,37.2,30.04,SE,145,0.0,7.0,65,0.00,,,0.00,meteohub,2013-04-09 09:27:00,
2013-04-09 05:32:00,48.0,36.9,30.04,WSW,258,0.0,7.0,65,0.00,,,0.00,meteohub,2013-04-09 09:32:00,
2013-04-09 05:37:00,48.0,36.9,30.04,WSW,258,0.0,0.0,65,0.00,,,0.00,meteohub,2013-04-09 09:37:00,
2013-04-09 05:42:00,48.0,36.9,30.04,SW,235,0.0,0.0,65,0.00,,,0.00,meteohub,2013-04-09 09:42:00,
2013-04-09 05:52:00,47.5,36.7,30.04,NNE,32,0.0,0.0,66,0.00,,,0.00,meteohub,2013-04-09 09:52:00,
2013-04-09 05:57:00,47.3,36.5,30.04,NNE,32,0.0,0.0,66,0.00,,,0.00,meteohub,2013-04-09 09:57:00,
2013-04-09 06:02:00,47.3,36.5,30.04,ENE,78,3.0,0.0,66,0.00,,,0.00,meteohub,2013-04-09 10:02:00,
2013-04-09 06:12:00,47.1,36.7,30.04,ENE,78,0.0,3.0,67,0.00,,,0.00,meteohub,2013-04-09 10:12:00,
2013-04-09 06:17:00,46.9,36.5,30.04,ENE,78,0.0,3.0,67,0.00,,,0.00,meteohub,2013-04-09 10:17:00,
2013-04-09 06:22:00,46.9,36.5,30.04,ENE,78,0.0,2.0,67,0.00,,,0.00,meteohub,2013-04-09 10:22:00,
2013-04-09 06:27:00,46.8,36.3,30.07,ENE,78,0.0,2.0,67,0.00,,,0.00,meteohub,2013-04-09 10:27:00,
2013-04-09 06:37:00,46.6,36.3,30.07,WNW,302,0.0,0.0,67,0.00,,,0.00,meteohub,2013-04-09 10:37:00,
2013-04-09 06:47:00,46.4,36.5,30.07,SW,235,0.0,0.0,68,0.00,,,0.00,meteohub,2013-04-09 10:47:00,
2013-04-09 06:57:00,46.2,36.7,30.07,WNW,302,0.0,0.0,69,0.00,,,0.00,meteohub,2013-04-09 10:57:00,
2013-04-09 07:02:00,46.2,36.7,30.07,North,10,2.0,0.0,69,0.00,,,0.00,meteohub,2013-04-09 11:02:00,
2013-04-09 07:07:00,45.9,36.3,30.07,NE,55,0.0,4.0,69,0.00,,,0.00,meteohub,2013-04-09 11:07:00,
2013-04-09 07:12:00,45.9,36.3,30.07,East,100,0.0,4.0,69,0.00,,,0.00,meteohub,2013-04-09 11:12:00,
2013-04-09 07:17:00,45.9,36.3,30.07,NE,55,2.0,4.0,69,0.00,,,0.00,meteohub,2013-04-09 11:17:00,
2013-04-09 07:22:00,45.7,36.1,30.07,NNE,32,0.0,6.0,69,0.00,,,0.00,meteohub,2013-04-09 11:22:00,
2013-04-09 07:27:00,45.7,36.1,30.07,SSE,168,0.0,6.0,69,0.00,,,0.00,meteohub,2013-04-09 11:27:00,
2013-04-09 07:32:00,45.9,36.7,30.07,NW,325,0.0,3.0,70,0.00,,,0.00,meteohub,2013-04-09 11:32:00,
2013-04-09 07:37:00,45.9,36.7,30.07,ENE,78,0.0,0.0,70,0.00,,,0.00,meteohub,2013-04-09 11:37:00,
2013-04-09 07:42:00,45.9,36.7,30.07,ENE,78,0.0,0.0,70,0.00,,,0.00,meteohub,2013-04-09 11:42:00,
2013-04-09 07:52:00,46.0,36.9,30.07,East,100,0.0,0.0,70,0.00,,,0.00,meteohub,2013-04-09 11:52:00,
2013-04-09 07:57:00,46.0,36.9,30.10,ENE,78,0.0,0.0,70,0.00,,,0.00,meteohub,2013-04-09 11:57:00,
2013-04-09 08:02:00,45.9,36.7,30.10,ENE,78,0.0,0.0,70,0.00,,,0.00,meteohub,2013-04-09 12:02:00,
2013-04-09 08:07:00,46.0,36.9,30.10,NNW,348,0.0,0.0,70,0.00,,,0.00,meteohub,2013-04-09 12:07:00,
2013-04-09 08:12:00,46.0,37.2,30.10,North,10,0.0,0.0,71,0.00,,,0.00,meteohub,2013-04-09 12:12:00,
2013-04-09 08:17:00,46.0,37.2,30.10,North,10,0.0,0.0,71,0.00,,,0.00,meteohub,2013-04-09 12:17:00,
2013-04-09 08:22:00,46.2,37.4,30.10,North,10,0.0,0.0,71,0.00,,,0.00,meteohub,2013-04-09 12:22:00,
2013-04-09 08:27:00,46.2,37.4,30.07,North,10,0.0,0.0,71,0.00,,,0.00,meteohub,2013-04-09 12:27:00,
2013-04-09 08:32:00,46.6,37.8,30.07,North,10,0.0,3.0,71,0.00,,,0.00,meteohub,2013-04-09 12:32:00,
2013-04-09 08:42:00,47.1,38.7,30.10,NNE,32,0.0,0.0,72,0.00,,,0.00,meteohub,2013-04-09 12:42:00,
2013-04-09 08:47:00,47.3,38.8,30.10,NNW,348,0.0,0.0,72,0.00,,,0.00,meteohub,2013-04-09 12:47:00,
2013-04-09 08:52:00,47.5,38.8,30.10,North,10,0.0,0.0,72,0.00,,,0.00,meteohub,2013-04-09 12:52:00,
2013-04-09 08:57:00,47.8,39.2,30.10,North,10,0.0,0.0,72,0.00,,,0.00,meteohub,2013-04-09 12:57:00,
2013-04-09 09:02:00,48.2,39.6,30.10,North,10,0.0,0.0,72,0.00,,,0.00,meteohub,2013-04-09 13:02:00,
2013-04-09 09:12:00,49.1,40.5,30.10,NNW,348,5.0,5.0,72,0.00,,,0.00,meteohub,2013-04-09 13:12:00,
2013-04-09 09:17:00,49.5,40.8,30.10,ESE,122,0.0,6.0,72,0.00,,,0.00,meteohub,2013-04-09 13:17:00,
2013-04-09 09:22:00,49.8,41.2,30.10,SSW,212,0.0,6.0,72,0.00,,,0.00,meteohub,2013-04-09 13:22:00,
2013-04-09 09:32:00,51.3,42.3,30.07,East,100,3.0,6.0,71,0.00,,,0.00,meteohub,2013-04-09 13:32:00,
2013-04-09 09:37:00,52.0,42.4,30.07,NE,55,0.0,7.0,70,0.00,,,0.00,meteohub,2013-04-09 13:37:00,
2013-04-09 09:42:00,52.5,43.0,30.10,NNW,348,7.0,7.0,70,0.00,,,0.00,meteohub,2013-04-09 13:42:00,
2013-04-09 09:52:00,55.0,45.5,30.10,SE,145,5.0,11.0,70,0.00,,,0.00,meteohub,2013-04-09 13:52:00,
2013-04-09 09:57:00,55.6,45.1,30.07,NNW,348,2.0,11.0,68,0.00,,,0.00,meteohub,2013-04-09 13:57:00,
2013-04-09 10:07:00,58.6,47.3,30.07,South,190,4.0,5.0,66,0.00,,,0.00,meteohub,2013-04-09 14:07:00,
2013-04-09 10:12:00,59.9,47.3,30.07,SSE,168,2.0,9.0,63,0.00,,,0.00,meteohub,2013-04-09 14:12:00,
2013-04-09 10:17:00,61.2,47.7,30.07,West,280,7.0,13.0,61,0.00,,,0.00,meteohub,2013-04-09 14:17:00,
2013-04-09 10:22:00,62.1,48.0,30.07,South,190,7.0,13.0,60,0.00,,,0.00,meteohub,2013-04-09 14:22:00,
2013-04-09 10:27:00,63.1,47.7,30.07,WSW,258,6.0,13.0,57,0.00,,,0.00,meteohub,2013-04-09 14:27:00,
2013-04-09 10:32:00,64.2,47.3,30.07,WSW,258,7.0,15.0,54,0.00,,,0.00,meteohub,2013-04-09 14:32:00,
2013-04-09 10:37:00,64.8,47.3,30.07,SE,145,3.0,15.0,53,0.00,,,0.00,meteohub,2013-04-09 14:37:00,
2013-04-09 10:47:00,66.0,47.5,30.07,SSE,168,12.0,17.0,51,0.00,,,0.00,meteohub,2013-04-09 14:47:00,
2013-04-09 10:52:00,66.4,46.6,30.07,NW,325,11.0,17.0,49,0.00,,,0.00,meteohub,2013-04-09 14:52:00,
2013-04-09 10:57:00,67.3,48.0,30.07,WNW,302,4.0,13.0,50,0.00,,,0.00,meteohub,2013-04-09 14:57:00,
2013-04-09 11:07:00,68.2,47.1,30.07,SSW,212,9.0,12.0,47,0.00,,,0.00,meteohub,2013-04-09 15:07:00,
2013-04-09 11:12:00,68.7,47.1,30.07,SSW,212,9.0,13.0,46,0.00,,,0.00,meteohub,2013-04-09 15:12:00,
2013-04-09 11:17:00,68.7,47.1,30.07,WNW,302,5.0,16.0,46,0.00,,,0.00,meteohub,2013-04-09 15:17:00,
2013-04-09 11:22:00,69.4,47.1,30.07,SW,235,8.0,16.0,45,0.00,,,0.00,meteohub,2013-04-09 15:22:00,
2013-04-09 11:32:00,69.8,46.9,30.07,SSE,168,15.0,15.0,44,0.00,,,0.00,meteohub,2013-04-09 15:32:00,
2013-04-09 11:37:00,70.5,47.7,30.07,WNW,302,11.0,15.0,44,0.00,,,0.00,meteohub,2013-04-09 15:37:00,
2013-04-09 11:42:00,71.1,47.5,30.07,SSE,168,9.0,20.0,43,0.00,,,0.00,meteohub,2013-04-09 15:42:00,
2013-04-09 11:47:00,71.1,47.5,30.07,SSW,212,5.0,20.0,43,0.00,,,0.00,meteohub,2013-04-09 15:47:00,
2013-04-09 11:52:00,71.1,46.8,30.07,WSW,258,7.0,20.0,42,0.00,,,0.00,meteohub,2013-04-09 15:52:00,
2013-04-09 11:57:00,70.9,46.6,30.07,ESE,122,4.0,17.0,42,0.00,,,0.00,meteohub,2013-04-09 15:57:00,
2013-04-09 12:02:00,71.2,46.9,30.07,SSE,168,8.0,17.0,42,0.00,,,0.00,meteohub,2013-04-09 16:02:00,
2013-04-09 12:07:00,71.2,46.9,30.07,West,280,12.0,15.0,42,0.00,,,0.00,meteohub,2013-04-09 16:07:00,
2013-04-09 12:17:00,72.3,47.3,30.07,WNW,302,5.0,15.0,41,0.00,,,0.00,meteohub,2013-04-09 16:17:00,
2013-04-09 12:22:00,72.3,47.3,30.07,NW,325,9.0,13.0,41,0.00,,,0.00,meteohub,2013-04-09 16:22:00,
2013-04-09 12:27:00,72.3,46.6,30.07,North,10,12.0,13.0,40,0.00,,,0.00,meteohub,2013-04-09 16:27:00,
2013-04-09 12:37:00,72.9,46.4,30.07,NNW,348,16.0,17.0,39,0.00,,,0.00,meteohub,2013-04-09 16:37:00,
2013-04-09 12:47:00,74.5,47.3,30.07,SSW,212,7.0,21.0,38,0.00,,,0.00,meteohub,2013-04-09 16:47:00,
2013-04-09 12:52:00,74.7,46.8,30.07,SW,235,15.0,21.0,37,0.00,,,0.00,meteohub,2013-04-09 16:52:00,
2013-04-09 12:57:00,75.0,47.7,30.04,East,100,4.0,20.0,38,0.00,,,0.00,meteohub,2013-04-09 16:57:00,
2013-04-09 13:02:00,75.4,46.6,30.04,SE,145,6.0,20.0,36,0.00,,,0.00,meteohub,2013-04-09 17:02:00,
2013-04-09 13:07:00,74.8,46.0,30.04,WNW,302,12.0,15.0,36,0.00,,,0.00,meteohub,2013-04-09 17:07:00,
2013-04-09 13:12:00,74.8,46.8,30.04,NW,325,7.0,13.0,37,0.00,,,0.00,meteohub,2013-04-09 17:12:00,
2013-04-09 13:17:00,75.0,46.2,30.04,WNW,302,16.0,16.0,36,0.00,,,0.00,meteohub,2013-04-09 17:17:00,
2013-04-09 13:27:00,75.0,45.5,30.04,WNW,302,12.0,20.0,35,0.00,,,0.00,meteohub,2013-04-09 17:27:00,
2013-04-09 13:37:00,75.4,45.1,30.04,North,10,20.0,20.0,34,0.00,,,0.00,meteohub,2013-04-09 17:37:00,
2013-04-09 13:47:00,76.1,45.7,30.04,WNW,302,10.0,21.0,34,0.00,,,0.00,meteohub,2013-04-09 17:47:00,
2013-04-09 13:52:00,76.5,46.0,30.04,WSW,258,15.0,21.0,34,0.00,,,0.00,meteohub,2013-04-09 17:52:00,
2013-04-09 14:02:00,77.2,46.6,30.04,WSW,258,13.0,21.0,34,0.00,,,0.00,meteohub,2013-04-09 18:02:00,
2013-04-09 14:07:00,76.3,45.1,30.04,West,280,8.0,16.0,33,0.00,,,0.00,meteohub,2013-04-09 18:07:00,
2013-04-09 14:12:00,76.8,45.5,30.04,NNW,348,13.0,25.0,33,0.00,,,0.00,meteohub,2013-04-09 18:12:00,
2013-04-09 14:22:00,77.9,46.6,30.04,WNW,302,8.0,21.0,33,0.00,,,0.00,meteohub,2013-04-09 18:22:00,
2013-04-09 14:27:00,77.5,45.3,30.04,WNW,302,8.0,21.0,32,0.00,,,0.00,meteohub,2013-04-09 18:27:00,
2013-04-09 14:32:00,77.9,45.7,30.04,WSW,258,12.0,20.0,32,0.00,,,0.00,meteohub,2013-04-09 18:32:00,
2013-04-09 14:42:00,78.1,45.9,30.04,WNW,302,13.0,21.0,32,0.00,,,0.00,meteohub,2013-04-09 18:42:00,
2013-04-09 14:47:00,78.8,45.7,30.04,South,190,9.0,21.0,31,0.00,,,0.00,meteohub,2013-04-09 18:47:00,
2013-04-09 14:52:00,79.0,45.9,30.04,SSW,212,17.0,25.0,31,0.00,,,0.00,meteohub,2013-04-09 18:52:00,
2013-04-09 15:02:00,78.8,45.7,30.01,WNW,302,8.0,26.0,31,0.00,,,0.00,meteohub,2013-04-09 19:02:00,
2013-04-09 15:07:00,79.0,45.9,30.01,West,280,10.0,26.0,31,0.00,,,0.00,meteohub,2013-04-09 19:07:00,
2013-04-09 15:17:00,79.7,46.4,30.01,South,190,3.0,20.0,31,0.00,,,0.00,meteohub,2013-04-09 19:17:00,
2013-04-09 15:27:00,79.7,45.5,30.01,South,190,21.0,21.0,30,0.00,,,0.00,meteohub,2013-04-09 19:27:00,
2013-04-09 15:32:00,79.5,45.3,30.01,WSW,258,17.0,26.0,30,0.00,,,0.00,meteohub,2013-04-09 19:32:00,
2013-04-09 15:37:00,79.5,45.3,30.01,WSW,258,16.0,26.0,30,0.00,,,0.00,meteohub,2013-04-09 19:37:00,
2013-04-09 15:47:00,79.2,45.1,29.99,WSW,258,8.0,17.0,30,0.00,,,0.00,meteohub,2013-04-09 19:47:00,
2013-04-09 15:57:00,79.2,45.1,29.99,SSW,212,10.0,16.0,30,0.00,,,0.00,meteohub,2013-04-09 19:57:00,
2013-04-09 16:02:00,79.3,45.3,29.99,West,280,5.0,20.0,30,0.00,,,0.00,meteohub,2013-04-09 20:02:00,
2013-04-09 16:07:00,79.3,45.3,29.99,WNW,302,12.0,20.0,30,0.00,,,0.00,meteohub,2013-04-09 20:07:00,
2013-04-09 16:12:00,78.4,44.4,29.99,SW,235,29.0,29.0,30,0.00,,,0.00,meteohub,2013-04-09 20:12:00,
2013-04-09 16:17:00,78.4,44.4,29.99,West,280,7.0,29.0,30,0.00,,,0.00,meteohub,2013-04-09 20:17:00,
2013-04-09 16:27:00,78.3,44.2,29.99,WSW,258,7.0,29.0,30,0.00,,,0.00,meteohub,2013-04-09 20:27:00,
2013-04-09 16:32:00,78.1,44.1,29.99,WSW,258,3.0,21.0,30,0.00,,,0.00,meteohub,2013-04-09 20:32:00,
2013-04-09 16:37:00,78.1,44.1,29.99,WNW,302,17.0,19.0,30,0.00,,,0.00,meteohub,2013-04-09 20:37:00,
2013-04-09 16:47:00,77.7,44.8,29.99,West,280,5.0,17.0,31,0.00,,,0.00,meteohub,2013-04-09 20:47:00,
2013-04-09 16:52:00,77.7,43.9,29.99,West,280,7.0,17.0,30,0.00,,,0.00,meteohub,2013-04-09 20:52:00,
2013-04-09 16:57:00,77.7,43.9,29.99,WNW,302,2.0,13.0,30,0.00,,,0.00,meteohub,2013-04-09 20:57:00,
2013-04-09 17:02:00,77.9,44.1,29.99,WNW,302,11.0,13.0,30,0.00,,,0.00,meteohub,2013-04-09 21:02:00,
2013-04-09 17:07:00,78.1,44.1,29.99,WNW,302,6.0,16.0,30,0.00,,,0.00,meteohub,2013-04-09 21:07:00,
2013-04-09 17:17:00,78.4,44.4,29.99,WSW,258,2.0,17.0,30,0.00,,,0.00,meteohub,2013-04-09 21:17:00,
2013-04-09 17:22:00,78.3,44.2,29.99,South,190,3.0,17.0,30,0.00,,,0.00,meteohub,2013-04-09 21:22:00,
2013-04-09 17:27:00,78.6,44.6,29.99,WNW,302,7.0,17.0,30,0.00,,,0.00,meteohub,2013-04-09 21:27:00,
2013-04-09 17:37:00,78.3,44.2,29.99,NW,325,12.0,24.0,30,0.00,,,0.00,meteohub,2013-04-09 21:37:00,
2013-04-09 17:47:00,77.7,43.9,29.96,WNW,302,5.0,24.0,30,0.00,,,0.00,meteohub,2013-04-09 21:47:00,
2013-04-09 17:57:00,77.4,43.5,29.99,NNW,348,4.0,11.0,30,0.00,,,0.00,meteohub,2013-04-09 21:57:00,
2013-04-09 18:02:00,77.0,43.2,29.99,WSW,258,4.0,12.0,30,0.00,,,0.00,meteohub,2013-04-09 22:02:00,
2013-04-09 18:07:00,77.0,43.2,29.99,West,280,5.0,12.0,30,0.00,,,0.00,meteohub,2013-04-09 22:07:00,
2013-04-09 18:12:00,76.8,43.0,29.99,West,280,7.0,12.0,30,0.00,,,0.00,meteohub,2013-04-09 22:12:00,
2013-04-09 18:22:00,76.5,43.5,29.99,East,100,4.0,9.0,31,0.00,,,0.00,meteohub,2013-04-09 22:22:00,
2013-04-09 18:27:00,76.1,43.3,29.96,North,10,3.0,9.0,31,0.00,,,0.00,meteohub,2013-04-09 22:27:00,
2013-04-09 18:37:00,76.1,43.3,29.96,South,190,4.0,6.0,31,0.00,,,0.00,meteohub,2013-04-09 22:37:00,
2013-04-09 18:42:00,76.3,43.5,29.99,ESE,122,2.0,7.0,31,0.00,,,0.00,meteohub,2013-04-09 22:42:00,
2013-04-09 18:47:00,76.5,43.5,29.99,NNE,32,0.0,7.0,31,0.00,,,0.00,meteohub,2013-04-09 22:47:00,
2013-04-09 18:57:00,76.5,42.8,29.99,SSE,168,7.0,9.0,30,0.00,,,0.00,meteohub,2013-04-09 22:57:00,
2013-04-09 19:02:00,76.3,41.7,29.99,NNW,348,0.0,11.0,29,0.00,,,0.00,meteohub,2013-04-09 23:02:00,
2013-04-09 19:07:00,76.1,41.5,29.99,SW,235,7.0,11.0,29,0.00,,,0.00,meteohub,2013-04-09 23:07:00,
2013-04-09 19:12:00,75.6,41.2,29.99,SSE,168,7.0,11.0,29,0.00,,,0.00,meteohub,2013-04-09 23:12:00,
2013-04-09 19:22:00,74.8,42.3,29.99,SE,145,4.0,9.0,31,0.00,,,0.00,meteohub,2013-04-09 23:22:00,
2013-04-09 19:32:00,74.1,41.5,29.99,ESE,122,4.0,8.0,31,0.00,,,0.00,meteohub,2013-04-09 23:32:00,
2013-04-09 19:42:00,73.8,40.5,29.99,SSE,168,0.0,9.0,30,0.00,,,0.00,meteohub,2013-04-09 23:42:00,
2013-04-09 19:47:00,73.4,40.1,29.99,SSE,168,6.0,6.0,30,0.00,,,0.00,meteohub,2013-04-09 23:47:00,
2013-04-09 19:52:00,73.0,40.6,29.99,SSE,168,7.0,7.0,31,0.00,,,0.00,meteohub,2013-04-09 23:52:00,
2013-04-09 20:02:00,72.3,40.1,29.99,SSE,168,6.0,7.0,31,0.00,,,0.00,meteohub,2013-04-10 00:02:00,
2013-04-09 20:07:00,72.0,39.7,29.99,SSE,168,5.0,7.0,31,0.00,,,0.00,meteohub,2013-04-10 00:07:00,
2013-04-09 20:17:00,71.2,39.9,29.99,West,280,3.0,7.0,32,0.00,,,0.00,meteohub,2013-04-10 00:17:00,
2013-04-09 20:22:00,71.2,39.9,29.99,South,190,3.0,7.0,32,0.00,,,0.00,meteohub,2013-04-10 00:22:00,
2013-04-09 20:27:00,71.1,39.7,29.99,WNW,302,6.0,7.0,32,0.00,,,0.00,meteohub,2013-04-10 00:27:00,
2013-04-09 20:32:00,70.7,39.4,29.99,NNW,348,4.0,7.0,32,0.00,,,0.00,meteohub,2013-04-10 00:32:00,
2013-04-09 20:37:00,70.5,39.2,29.99,SSE,168,3.0,7.0,32,0.00,,,0.00,meteohub,2013-04-10 00:37:00,
2013-04-09 20:42:00,70.3,39.2,29.99,East,100,2.0,6.0,32,0.00,,,0.00,meteohub,2013-04-10 00:42:00,
2013-04-09 20:47:00,70.0,38.8,29.99,East,100,0.0,5.0,32,0.00,,,0.00,meteohub,2013-04-10 00:47:00,
2013-04-09 20:52:00,69.8,38.7,29.99,ENE,78,0.0,3.0,32,0.00,,,0.00,meteohub,2013-04-10 00:52:00,
2013-04-09 20:57:00,69.1,37.9,29.99,ENE,78,0.0,2.0,32,0.00,,,0.00,meteohub,2013-04-10 00:57:00,
2013-04-09 21:07:00,68.5,37.6,29.99,ENE,78,0.0,0.0,32,0.00,,,0.00,meteohub,2013-04-10 01:07:00,
2013-04-09 21:12:00,68.2,37.9,29.99,NW,325,0.0,0.0,33,0.00,,,0.00,meteohub,2013-04-10 01:12:00,
2013-04-09 21:22:00,67.3,37.2,29.99,SSE,168,4.0,0.0,33,0.00,,,0.00,meteohub,2013-04-10 01:22:00,
2013-04-09 21:27:00,67.1,37.0,29.99,ESE,122,2.0,5.0,33,0.00,,,0.00,meteohub,2013-04-10 01:27:00,
2013-04-09 21:32:00,66.6,36.7,29.99,NW,325,5.0,5.0,33,0.00,,,0.00,meteohub,2013-04-10 01:32:00,
2013-04-09 21:37:00,66.2,37.0,29.99,WNW,302,0.0,6.0,34,0.00,,,0.00,meteohub,2013-04-10 01:37:00,
2013-04-09 21:42:00,65.7,36.5,30.01,SSW,212,3.0,6.0,34,0.00,,,0.00,meteohub,2013-04-10 01:42:00,
2013-04-09 21:47:00,65.5,36.3,30.01,ESE,122,5.0,6.0,34,0.00,,,0.00,meteohub,2013-04-10 01:47:00,
2013-04-09 21:52:00,65.1,36.1,30.01,ESE,122,0.0,5.0,34,0.00,,,0.00,meteohub,2013-04-10 01:52:00,
2013-04-09 21:57:00,64.9,36.7,29.99,ENE,78,0.0,5.0,35,0.00,,,0.00,meteohub,2013-04-10 01:57:00,
2013-04-09 22:02:00,64.6,36.3,29.99,ENE,78,2.0,5.0,35,0.00,,,0.00,meteohub,2013-04-10 02:02:00,
2013-04-09 22:07:00,64.2,36.0,29.99,NW,325,2.0,4.0,35,0.00,,,0.00,meteohub,2013-04-10 02:07:00,
2013-04-09 22:17:00,63.5,36.1,30.01,SSE,168,0.0,2.0,36,0.00,,,0.00,meteohub,2013-04-10 02:17:00,
2013-04-09 22:22:00,63.1,35.8,30.01,ESE,122,3.0,3.0,36,0.00,,,0.00,meteohub,2013-04-10 02:22:00,
2013-04-09 22:32:00,62.6,36.0,30.01,East,100,0.0,5.0,37,0.00,,,0.00,meteohub,2013-04-10 02:32:00,
2013-04-09 22:37:00,62.2,36.3,30.01,East,100,2.0,5.0,38,0.00,,,0.00,meteohub,2013-04-10 02:37:00,
2013-04-09 22:42:00,61.7,36.0,29.99,ESE,122,3.0,4.0,38,0.00,,,0.00,meteohub,2013-04-10 02:42:00,
2013-04-09 22:47:00,61.5,35.8,29.99,East,100,0.0,4.0,38,0.00,,,0.00,meteohub,2013-04-10 02:47:00,
2013-04-09 22:52:00,61.3,36.1,29.99,East,100,0.0,4.0,39,0.00,,,0.00,meteohub,2013-04-10 02:52:00,
2013-04-09 22:57:00,61.3,36.1,30.01,North,10,2.0,3.0,39,0.00,,,0.00,meteohub,2013-04-10 02:57:00,
2013-04-09 23:02:00,60.6,36.1,30.01,NE,55,0.0,3.0,40,0.00,,,0.00,meteohub,2013-04-10 03:02:00,
2013-04-09 23:12:00,59.9,35.6,29.99,WNW,302,0.0,3.0,40,0.00,,,0.00,meteohub,2013-04-10 03:12:00,
2013-04-09 23:17:00,59.5,36.5,29.99,SSW,212,0.0,0.0,42,0.00,,,0.00,meteohub,2013-04-10 03:17:00,
2013-04-09 23:22:00,59.2,36.1,29.99,South,190,3.0,0.0,42,0.00,,,0.00,meteohub,2013-04-10 03:22:00,
2013-04-09 23:32:00,58.6,36.3,29.99,East,100,0.0,4.0,43,0.00,,,0.00,meteohub,2013-04-10 03:32:00,
2013-04-09 23:37:00,58.5,36.7,29.99,East,100,0.0,4.0,44,0.00,,,0.00,meteohub,2013-04-10 03:37:00,
2013-04-09 23:47:00,58.1,36.3,29.99,ENE,78,0.0,0.0,44,0.00,,,0.00,meteohub,2013-04-10 03:47:00,
2013-04-09 23:52:00,58.1,36.3,29.99,ENE,78,0.0,3.0,44,0.00,,,0.00,meteohub,2013-04-10 03:52:00,
2013-04-09 23:57:00,57.7,36.5,29.96,NE,55,0.0,3.0,45,0.00,,,0.00,meteohub,2013-04-10 03:57:00,